TAP20K LPPT-LEMG
Flight info
| Callsign | TAP20K |
|---|---|
| Flight time | N/A |
| Altitude | 33000 |
| Route | DUZO1S DUZOP MINTA OSLEP NAPES ONUBA PIMUR SVL SVL1A |
| Aircraft | A21N/M-V/N |
Departure
| Time | 2026-05-01 14:37 |
|---|---|
| Airport | Lisbon Humberto Delgado Airport (LPPT) |
Arrival
| Time | N/A |
|---|---|
| Airport | Málaga-Costa del Sol Airport (LEMG) |
| Time | Latitude | Longitude | Altitude | Speed | Heading |
|---|---|---|---|---|---|
| 2026-05-01 14:24 | 38.76864 | -9.13136 | 334 ft | 1 kts | 348° |
| 2026-05-01 14:29 | 38.76866 | -9.13137 | 334 ft | 1 kts | 348° |
| 2026-05-01 14:29 | 38.76880 | -9.13140 | 334 ft | 3 kts | 349° |
| 2026-05-01 14:30 | 38.77011 | -9.13172 | 333 ft | 9 kts | 349° |
| 2026-05-01 14:30 | 38.77091 | -9.13192 | 332 ft | 13 kts | 346° |
| 2026-05-01 14:30 | 38.77193 | -9.13223 | 330 ft | 16 kts | 347° |
| 2026-05-01 14:31 | 38.77374 | -9.13265 | 329 ft | 13 kts | 351° |
| 2026-05-01 14:31 | 38.77472 | -9.13287 | 329 ft | 14 kts | 348° |
| 2026-05-01 14:31 | 38.77575 | -9.13316 | 331 ft | 14 kts | 352° |
| 2026-05-01 14:31 | 38.77678 | -9.13323 | 333 ft | 14 kts | 352° |
| 2026-05-01 14:32 | 38.77777 | -9.13349 | 337 ft | 14 kts | 348° |
| 2026-05-01 14:32 | 38.77870 | -9.13374 | 340 ft | 13 kts | 348° |
| 2026-05-01 14:32 | 38.77954 | -9.13397 | 343 ft | 12 kts | 348° |
| 2026-05-01 14:32 | 38.78037 | -9.13409 | 346 ft | 11 kts | 9° |
| 2026-05-01 14:33 | 38.78115 | -9.13372 | 347 ft | 12 kts | 22° |
| 2026-05-01 14:33 | 38.78199 | -9.13327 | 348 ft | 13 kts | 22° |
| 2026-05-01 14:33 | 38.78291 | -9.13279 | 348 ft | 14 kts | 22° |
| 2026-05-01 14:33 | 38.78366 | -9.13240 | 348 ft | 11 kts | 22° |
| 2026-05-01 14:34 | 38.78428 | -9.13219 | 348 ft | 9 kts | 1° |
| 2026-05-01 14:34 | 38.78486 | -9.13231 | 350 ft | 2 kts | 341° |
| 2026-05-01 14:34 | 38.78492 | -9.13234 | 350 ft | 0 kts | 338° |
| 2026-05-01 14:35 | 38.78510 | -9.13246 | 351 ft | 6 kts | 325° |
| 2026-05-01 14:35 | 38.78538 | -9.13315 | 355 ft | 11 kts | 272° |
| 2026-05-01 14:35 | 38.78490 | -9.13400 | 360 ft | 12 kts | 208° |
| 2026-05-01 14:35 | 38.78370 | -9.13466 | 362 ft | 48 kts | 202° |
| 2026-05-01 14:36 | 38.78061 | -9.13632 | 360 ft | 77 kts | 203° |
| 2026-05-01 14:36 | 38.77459 | -9.13948 | 354 ft | 108 kts | 201° |
| 2026-05-01 14:36 | 38.76678 | -9.14368 | 338 ft | 135 kts | 201° |
| 2026-05-01 14:36 | 38.75693 | -9.14863 | 768 ft | 166 kts | 202° |
| 2026-05-01 14:37 | 38.74538 | -9.15470 | 1351 ft | 196 kts | 203° |
| 2026-05-01 14:37 | 38.73189 | -9.16205 | 2002 ft | 231 kts | 203° |
| 2026-05-01 14:37 | 38.71609 | -9.17063 | 2641 ft | 272 kts | 203° |
| 2026-05-01 14:37 | 38.69719 | -9.18079 | 3291 ft | 314 kts | 203° |
| 2026-05-01 14:38 | 38.67583 | -9.19220 | 3929 ft | 354 kts | 203° |
| 2026-05-01 14:38 | 38.65218 | -9.20480 | 4611 ft | 390 kts | 203° |
| 2026-05-01 14:38 | 38.62748 | -9.21790 | 6457 ft | 392 kts | 202° |
| 2026-05-01 14:38 | 38.60254 | -9.23103 | 8328 ft | 394 kts | 202° |
| 2026-05-01 14:39 | 38.57791 | -9.24392 | 10170 ft | 394 kts | 202° |
| 2026-05-01 14:39 | 38.55295 | -9.25690 | 12067 ft | 391 kts | 201° |
| 2026-05-01 14:39 | 38.52888 | -9.26889 | 13731 ft | 350 kts | 196° |
| 2026-05-01 14:39 | 38.50676 | -9.27291 | 14381 ft | 311 kts | 172° |
| 2026-05-01 14:40 | 38.48664 | -9.26364 | 15010 ft | 309 kts | 142° |
| 2026-05-01 14:40 | 38.47258 | -9.24349 | 15653 ft | 310 kts | 122° |
| 2026-05-01 14:40 | 38.45937 | -9.22129 | 16252 ft | 323 kts | 134° |
| 2026-05-01 14:40 | 38.44210 | -9.20202 | 16840 ft | 347 kts | 140° |
| 2026-05-01 14:41 | 38.42250 | -9.18218 | 17430 ft | 370 kts | 140° |
| 2026-05-01 14:41 | 38.40183 | -9.16090 | 18041 ft | 393 kts | 140° |
| 2026-05-01 14:41 | 38.38039 | -9.13819 | 18673 ft | 414 kts | 139° |
| 2026-05-01 14:41 | 38.35798 | -9.11394 | 19306 ft | 436 kts | 139° |
| 2026-05-01 14:42 | 38.33457 | -9.08836 | 19941 ft | 457 kts | 138° |
| 2026-05-01 14:42 | 38.30984 | -9.06124 | 20715 ft | 475 kts | 138° |
| 2026-05-01 14:42 | 38.28513 | -9.03409 | 22061 ft | 478 kts | 138° |
| 2026-05-01 14:42 | 38.26015 | -9.00657 | 23495 ft | 478 kts | 138° |
| 2026-05-01 14:43 | 38.23540 | -8.97924 | 24856 ft | 477 kts | 138° |
| 2026-05-01 14:43 | 38.21065 | -8.95184 | 26273 ft | 473 kts | 137° |
| 2026-05-01 14:43 | 38.18633 | -8.92487 | 27716 ft | 466 kts | 137° |
| 2026-05-01 14:43 | 38.16247 | -8.89838 | 29145 ft | 446 kts | 137° |
| 2026-05-01 14:44 | 38.14006 | -8.87378 | 30362 ft | 427 kts | 140° |
| 2026-05-01 14:44 | 38.08628 | -8.84226 | 31626 ft | 434 kts | 159° |
| 2026-05-01 14:44 | 38.05769 | -8.82999 | 32255 ft | 438 kts | 159° |
| 2026-05-01 14:45 | 38.02907 | -8.81731 | 32831 ft | 443 kts | 158° |
| 2026-05-01 14:45 | 37.97013 | -8.78983 | 33156 ft | 459 kts | 157° |
| 2026-05-01 14:46 | 37.91076 | -8.76125 | 33167 ft | 457 kts | 156° |
| 2026-05-01 14:46 | 37.82213 | -8.71853 | 33159 ft | 458 kts | 156° |
| 2026-05-01 14:47 | 37.76320 | -8.68996 | 33154 ft | 457 kts | 155° |
| 2026-05-01 14:48 | 37.68217 | -8.62991 | 33151 ft | 452 kts | 137° |
| 2026-05-01 14:48 | 37.62251 | -8.53939 | 33149 ft | 448 kts | 118° |
| 2026-05-01 14:49 | 37.56430 | -8.40118 | 33147 ft | 448 kts | 117° |
| 2026-05-01 14:50 | 37.50655 | -8.26367 | 33146 ft | 448 kts | 117° |
| 2026-05-01 14:51 | 37.46261 | -8.15977 | 33146 ft | 448 kts | 117° |
| 2026-05-01 14:52 | 37.41883 | -8.05676 | 33146 ft | 448 kts | 117° |
| 2026-05-01 14:53 | 37.37482 | -7.95357 | 33146 ft | 448 kts | 117° |
| 2026-05-01 14:53 | 37.34529 | -7.88454 | 33147 ft | 448 kts | 117° |
| 2026-05-01 14:54 | 37.31591 | -7.81603 | 33146 ft | 448 kts | 117° |
| 2026-05-01 14:54 | 37.28634 | -7.74718 | 33147 ft | 448 kts | 117° |
| 2026-05-01 14:55 | 37.25686 | -7.67873 | 33147 ft | 448 kts | 117° |
| 2026-05-01 14:55 | 37.22728 | -7.61019 | 33146 ft | 448 kts | 117° |
| 2026-05-01 14:56 | 37.19766 | -7.54156 | 33146 ft | 447 kts | 116° |
| 2026-05-01 14:56 | 37.17853 | -7.46785 | 33145 ft | 447 kts | 99° |
| 2026-05-01 14:57 | 37.17738 | -7.39034 | 33145 ft | 449 kts | 83° |
| 2026-05-01 14:57 | 37.19259 | -7.27560 | 33147 ft | 449 kts | 82° |
| 2026-05-01 14:58 | 37.20309 | -7.19853 | 33147 ft | 449 kts | 82° |
| 2026-05-01 14:58 | 37.21344 | -7.12132 | 33148 ft | 448 kts | 82° |
| 2026-05-01 14:59 | 37.22360 | -7.04455 | 33154 ft | 447 kts | 82° |
| 2026-05-01 14:59 | 37.23366 | -6.96799 | 33159 ft | 446 kts | 83° |
| 2026-05-01 15:00 | 37.24860 | -6.85318 | 33168 ft | 446 kts | 83° |
| 2026-05-01 15:01 | 37.25856 | -6.77615 | 33171 ft | 446 kts | 83° |
| 2026-05-01 15:01 | 37.26841 | -6.69966 | 33173 ft | 446 kts | 83° |
| 2026-05-01 15:02 | 37.27819 | -6.62320 | 33172 ft | 446 kts | 83° |
| 2026-05-01 15:02 | 37.28796 | -6.54642 | 33166 ft | 446 kts | 83° |
| 2026-05-01 15:03 | 37.29950 | -6.46970 | 33158 ft | 448 kts | 79° |
| 2026-05-01 15:03 | 37.31385 | -6.39406 | 33153 ft | 448 kts | 78° |
| 2026-05-01 15:04 | 37.32789 | -6.31896 | 33148 ft | 446 kts | 79° |
| 2026-05-01 15:04 | 37.33462 | -6.28234 | 33143 ft | 429 kts | 79° |
| 2026-05-01 15:04 | 37.34121 | -6.24627 | 33029 ft | 416 kts | 80° |
| 2026-05-01 15:04 | 37.34755 | -6.21120 | 32628 ft | 424 kts | 80° |
| 2026-05-01 15:05 | 37.35405 | -6.17497 | 32226 ft | 430 kts | 80° |
| 2026-05-01 15:05 | 37.36062 | -6.13850 | 31825 ft | 428 kts | 80° |
| 2026-05-01 15:05 | 37.36715 | -6.10223 | 31424 ft | 426 kts | 80° |
| 2026-05-01 15:05 | 37.37369 | -6.06579 | 31020 ft | 424 kts | 80° |
| 2026-05-01 15:06 | 37.38014 | -6.02984 | 30620 ft | 422 kts | 80° |
| 2026-05-01 15:06 | 37.38649 | -5.99430 | 30220 ft | 420 kts | 80° |
| 2026-05-01 15:06 | 37.39286 | -5.95860 | 29819 ft | 418 kts | 80° |
| 2026-05-01 15:06 | 37.39916 | -5.92318 | 29419 ft | 416 kts | 80° |
| 2026-05-01 15:07 | 37.40546 | -5.88769 | 29016 ft | 414 kts | 80° |
| 2026-05-01 15:07 | 37.41168 | -5.85265 | 28616 ft | 412 kts | 80° |
| 2026-05-01 15:07 | 37.41579 | -5.81783 | 28205 ft | 406 kts | 91° |
| 2026-05-01 15:07 | 37.41272 | -5.78266 | 27800 ft | 400 kts | 106° |
| 2026-05-01 15:08 | 37.40253 | -5.75045 | 27399 ft | 396 kts | 120° |
| 2026-05-01 15:08 | 37.38617 | -5.72287 | 26996 ft | 394 kts | 134° |
| 2026-05-01 15:08 | 37.36575 | -5.70085 | 26608 ft | 392 kts | 141° |
| 2026-05-01 15:08 | 37.34508 | -5.68071 | 26221 ft | 390 kts | 142° |
| 2026-05-01 15:09 | 37.32287 | -5.65934 | 25806 ft | 388 kts | 142° |
| 2026-05-01 15:09 | 37.30165 | -5.63887 | 25407 ft | 386 kts | 142° |
| 2026-05-01 15:09 | 37.28072 | -5.61859 | 25010 ft | 384 kts | 142° |
| 2026-05-01 15:09 | 37.25964 | -5.59814 | 24608 ft | 382 kts | 142° |
| 2026-05-01 15:10 | 37.23882 | -5.57790 | 24208 ft | 380 kts | 142° |
| 2026-05-01 15:10 | 37.19766 | -5.53788 | 23412 ft | 375 kts | 142° |
| 2026-05-01 15:10 | 37.17740 | -5.51819 | 23017 ft | 373 kts | 142° |
| 2026-05-01 15:11 | 37.15702 | -5.49840 | 22524 ft | 373 kts | 142° |
| 2026-05-01 15:11 | 37.11634 | -5.45891 | 21473 ft | 370 kts | 142° |
| 2026-05-01 15:11 | 37.09640 | -5.43954 | 20956 ft | 368 kts | 142° |
| 2026-05-01 15:12 | 37.07613 | -5.41985 | 20426 ft | 366 kts | 143° |
| 2026-05-01 15:12 | 37.03632 | -5.38125 | 19379 ft | 363 kts | 144° |
| 2026-05-01 15:12 | 37.01651 | -5.36210 | 18854 ft | 361 kts | 144° |
| 2026-05-01 15:13 | 36.95812 | -5.30545 | 17289 ft | 356 kts | 147° |
| 2026-05-01 15:14 | 36.91937 | -5.26811 | 16243 ft | 353 kts | 147° |
| 2026-05-01 15:14 | 36.90008 | -5.24956 | 15720 ft | 352 kts | 147° |
| 2026-05-01 15:14 | 36.86232 | -5.21343 | 14694 ft | 349 kts | 147° |
| 2026-05-01 15:15 | 36.83041 | -5.17023 | 14074 ft | 349 kts | 116° |
| 2026-05-01 15:15 | 36.82948 | -5.11092 | 13297 ft | 344 kts | 85° |
| 2026-05-01 15:16 | 36.83465 | -5.05635 | 12519 ft | 317 kts | 91° |
| 2026-05-01 15:16 | 36.84041 | -5.01250 | 11851 ft | 324 kts | 64° |
| 2026-05-01 15:17 | 36.86737 | -4.97567 | 11254 ft | 327 kts | 40° |